sensor_id;sensor_type;location;lat;lon;timestamp;temperature;humidity
63537;DHT22;49686;51.880;5.632;2024-03-08T00:01:07;3.60;99.90
63537;DHT22;49686;51.880;5.632;2024-03-08T00:03:34;3.60;99.90
63537;DHT22;49686;51.880;5.632;2024-03-08T00:06:01;3.50;99.90
63537;DHT22;49686;51.880;5.632;2024-03-08T00:08:28;3.50;99.90
63537;DHT22;49686;51.880;5.632;2024-03-08T00:10:58;3.50;99.90
63537;DHT22;49686;51.880;5.632;2024-03-08T00:13:25;3.50;99.90
63537;DHT22;49686;51.880;5.632;2024-03-08T00:15:52;3.50;99.90
63537;DHT22;49686;51.880;5.632;2024-03-08T00:18:20;3.40;99.90
63537;DHT22;49686;51.880;5.632;2024-03-08T00:20:50;3.50;99.90
63537;DHT22;49686;51.880;5.632;2024-03-08T00:23:17;3.40;99.90
63537;DHT22;49686;51.880;5.632;2024-03-08T00:25:43;3.40;99.90
63537;DHT22;49686;51.880;5.632;2024-03-08T00:28:10;3.40;99.90
63537;DHT22;49686;51.880;5.632;2024-03-08T00:30:37;3.40;99.90
63537;DHT22;49686;51.880;5.632;2024-03-08T00:33:04;3.30;99.90
63537;DHT22;49686;51.880;5.632;2024-03-08T00:35:32;3.30;99.90
63537;DHT22;49686;51.880;5.632;2024-03-08T00:38:00;3.30;99.90
63537;DHT22;49686;51.880;5.632;2024-03-08T00:40:27;3.30;99.90
63537;DHT22;49686;51.880;5.632;2024-03-08T00:42:54;3.30;99.90
63537;DHT22;49686;51.880;5.632;2024-03-08T00:45:21;3.30;99.90
63537;DHT22;49686;51.880;5.632;2024-03-08T00:47:48;3.30;99.90
63537;DHT22;49686;51.880;5.632;2024-03-08T00:50:15;3.20;99.90
63537;DHT22;49686;51.880;5.632;2024-03-08T00:52:44;3.20;99.90
63537;DHT22;49686;51.880;5.632;2024-03-08T00:55:11;3.20;99.90
63537;DHT22;49686;51.880;5.632;2024-03-08T00:57:38;3.10;99.90
63537;DHT22;49686;51.880;5.632;2024-03-08T01:00:06;3.10;99.90
63537;DHT22;49686;51.880;5.632;2024-03-08T01:02:33;3.00;99.90
63537;DHT22;49686;51.880;5.632;2024-03-08T01:05:00;3.00;99.90
63537;DHT22;49686;51.880;5.632;2024-03-08T01:07:27;3.00;99.90
63537;DHT22;49686;51.880;5.632;2024-03-08T01:09:55;3.00;99.90
63537;DHT22;49686;51.880;5.632;2024-03-08T01:12:22;3.00;99.90
63537;DHT22;49686;51.880;5.632;2024-03-08T01:14:49;3.00;99.90
63537;DHT22;49686;51.880;5.632;2024-03-08T01:17:16;3.00;99.90
63537;DHT22;49686;51.880;5.632;2024-03-08T01:19:43;2.90;99.90
63537;DHT22;49686;51.880;5.632;2024-03-08T01:22:10;2.90;99.90
63537;DHT22;49686;51.880;5.632;2024-03-08T01:24:37;2.90;99.90
63537;DHT22;49686;51.880;5.632;2024-03-08T01:27:05;2.90;99.90
63537;DHT22;49686;51.880;5.632;2024-03-08T01:29:32;2.90;99.90
63537;DHT22;49686;51.880;5.632;2024-03-08T01:31:59;2.90;99.90
63537;DHT22;49686;51.880;5.632;2024-03-08T01:34:26;2.80;99.90
63537;DHT22;49686;51.880;5.632;2024-03-08T01:36:52;2.80;99.90
63537;DHT22;49686;51.880;5.632;2024-03-08T01:39:19;2.80;99.90
63537;DHT22;49686;51.880;5.632;2024-03-08T01:41:47;2.80;99.90
63537;DHT22;49686;51.880;5.632;2024-03-08T01:44:15;2.70;99.90
63537;DHT22;49686;51.880;5.632;2024-03-08T01:46:43;2.70;99.90
63537;DHT22;49686;51.880;5.632;2024-03-08T01:49:11;2.80;99.90
63537;DHT22;49686;51.880;5.632;2024-03-08T01:51:40;2.80;99.90
63537;DHT22;49686;51.880;5.632;2024-03-08T01:54:11;2.80;99.90
63537;DHT22;49686;51.880;5.632;2024-03-08T01:56:38;2.70;99.90
63537;DHT22;49686;51.880;5.632;2024-03-08T01:59:06;2.70;99.90
63537;DHT22;49686;51.880;5.632;2024-03-08T02:01:36;2.70;99.90
63537;DHT22;49686;51.880;5.632;2024-03-08T02:04:04;2.70;99.90
63537;DHT22;49686;51.880;5.632;2024-03-08T02:06:31;2.70;99.90
63537;DHT22;49686;51.880;5.632;2024-03-08T02:09:00;2.70;99.90
63537;DHT22;49686;51.880;5.632;2024-03-08T02:11:32;2.70;99.90
63537;DHT22;49686;51.880;5.632;2024-03-08T02:14:10;2.60;99.90
63537;DHT22;49686;51.880;5.632;2024-03-08T02:16:40;2.60;99.90
63537;DHT22;49686;51.880;5.632;2024-03-08T02:19:06;2.60;99.90
63537;DHT22;49686;51.880;5.632;2024-03-08T02:21:35;2.60;99.90
63537;DHT22;49686;51.880;5.632;2024-03-08T02:24:02;2.60;99.90
63537;DHT22;49686;51.880;5.632;2024-03-08T02:26:29;2.50;99.90
63537;DHT22;49686;51.880;5.632;2024-03-08T02:28:56;2.50;99.90
63537;DHT22;49686;51.880;5.632;2024-03-08T02:31:26;2.50;99.90
63537;DHT22;49686;51.880;5.632;2024-03-08T02:33:53;2.50;99.90
63537;DHT22;49686;51.880;5.632;2024-03-08T02:36:20;2.50;99.90
63537;DHT22;49686;51.880;5.632;2024-03-08T02:38:48;2.40;99.90
63537;DHT22;49686;51.880;5.632;2024-03-08T02:41:15;2.40;99.90
63537;DHT22;49686;51.880;5.632;2024-03-08T02:43:44;2.40;99.90
63537;DHT22;49686;51.880;5.632;2024-03-08T02:46:11;2.40;99.90
63537;DHT22;49686;51.880;5.632;2024-03-08T02:48:38;2.40;99.90
63537;DHT22;49686;51.880;5.632;2024-03-08T02:51:07;2.40;99.90
63537;DHT22;49686;51.880;5.632;2024-03-08T02:53:33;2.40;99.90
63537;DHT22;49686;51.880;5.632;2024-03-08T02:56:02;2.40;99.90
63537;DHT22;49686;51.880;5.632;2024-03-08T02:58:29;2.40;99.90
63537;DHT22;49686;51.880;5.632;2024-03-08T03:00:56;2.40;99.90
63537;DHT22;49686;51.880;5.632;2024-03-08T03:03:23;2.30;99.90
63537;DHT22;49686;51.880;5.632;2024-03-08T03:05:53;2.30;99.90
63537;DHT22;49686;51.880;5.632;2024-03-08T03:08:19;2.30;99.90
63537;DHT22;49686;51.880;5.632;2024-03-08T03:10:49;2.30;99.90
63537;DHT22;49686;51.880;5.632;2024-03-08T03:13:17;2.30;99.90
63537;DHT22;49686;51.880;5.632;2024-03-08T03:15:46;2.20;99.90
63537;DHT22;49686;51.880;5.632;2024-03-08T03:18:13;2.20;99.90
63537;DHT22;49686;51.880;5.632;2024-03-08T03:20:42;2.20;99.90
63537;DHT22;49686;51.880;5.632;2024-03-08T03:23:10;2.20;99.90
63537;DHT22;49686;51.880;5.632;2024-03-08T03:25:37;2.20;99.90
63537;DHT22;49686;51.880;5.632;2024-03-08T03:28:05;2.20;99.90
63537;DHT22;49686;51.880;5.632;2024-03-08T03:30:34;2.20;99.90
63537;DHT22;49686;51.880;5.632;2024-03-08T03:33:01;2.10;99.90
63537;DHT22;49686;51.880;5.632;2024-03-08T03:35:29;2.10;99.90
63537;DHT22;49686;51.880;5.632;2024-03-08T03:37:56;2.10;99.90
63537;DHT22;49686;51.880;5.632;2024-03-08T03:40:23;2.10;99.90
63537;DHT22;49686;51.880;5.632;2024-03-08T03:42:50;2.10;99.90
63537;DHT22;49686;51.880;5.632;2024-03-08T03:45:17;2.00;99.90
63537;DHT22;49686;51.880;5.632;2024-03-08T03:47:45;2.00;99.90
63537;DHT22;49686;51.880;5.632;2024-03-08T03:50:12;2.00;99.90
63537;DHT22;49686;51.880;5.632;2024-03-08T03:52:41;2.00;99.90
63537;DHT22;49686;51.880;5.632;2024-03-08T03:55:09;2.00;99.90
63537;DHT22;49686;51.880;5.632;2024-03-08T03:57:35;2.00;99.90
63537;DHT22;49686;51.880;5.632;2024-03-08T04:00:03;1.90;99.90
63537;DHT22;49686;51.880;5.632;2024-03-08T04:02:35;1.90;99.90
63537;DHT22;49686;51.880;5.632;2024-03-08T04:05:04;1.90;99.90
63537;DHT22;49686;51.880;5.632;2024-03-08T04:07:31;1.90;99.90
63537;DHT22;49686;51.880;5.632;2024-03-08T04:09:59;1.80;99.90
63537;DHT22;49686;51.880;5.632;2024-03-08T04:12:26;1.80;99.90
63537;DHT22;49686;51.880;5.632;2024-03-08T04:14:55;1.80;99.90
63537;DHT22;49686;51.880;5.632;2024-03-08T04:17:22;1.90;99.90
63537;DHT22;49686;51.880;5.632;2024-03-08T04:19:49;1.80;99.90
63537;DHT22;49686;51.880;5.632;2024-03-08T04:22:17;1.80;99.90
63537;DHT22;49686;51.880;5.632;2024-03-08T04:24:48;1.80;99.90
63537;DHT22;49686;51.880;5.632;2024-03-08T04:27:15;1.80;99.90
63537;DHT22;49686;51.880;5.632;2024-03-08T04:29:46;1.80;99.90
63537;DHT22;49686;51.880;5.632;2024-03-08T04:32:14;1.80;99.90
63537;DHT22;49686;51.880;5.632;2024-03-08T04:34:41;1.80;99.90
63537;DHT22;49686;51.880;5.632;2024-03-08T04:37:12;1.80;99.90
63537;DHT22;49686;51.880;5.632;2024-03-08T04:39:40;1.80;99.90
63537;DHT22;49686;51.880;5.632;2024-03-08T04:42:08;1.80;99.90
63537;DHT22;49686;51.880;5.632;2024-03-08T04:44:36;1.80;99.90
63537;DHT22;49686;51.880;5.632;2024-03-08T04:47:03;1.80;99.90
63537;DHT22;49686;51.880;5.632;2024-03-08T04:49:30;1.80;99.90
63537;DHT22;49686;51.880;5.632;2024-03-08T04:51:57;1.80;99.90
63537;DHT22;49686;51.880;5.632;2024-03-08T04:54:24;1.80;99.90
63537;DHT22;49686;51.880;5.632;2024-03-08T04:56:52;1.70;99.90
63537;DHT22;49686;51.880;5.632;2024-03-08T04:59:19;1.80;99.90
63537;DHT22;49686;51.880;5.632;2024-03-08T05:01:49;1.70;99.90
63537;DHT22;49686;51.880;5.632;2024-03-08T05:04:16;1.70;99.90
63537;DHT22;49686;51.880;5.632;2024-03-08T05:06:43;1.70;99.90
63537;DHT22;49686;51.880;5.632;2024-03-08T05:09:13;1.70;99.90
63537;DHT22;49686;51.880;5.632;2024-03-08T05:11:40;1.70;99.90
63537;DHT22;49686;51.880;5.632;2024-03-08T05:14:08;1.70;99.90
63537;DHT22;49686;51.880;5.632;2024-03-08T05:16:41;1.70;99.90
63537;DHT22;49686;51.880;5.632;2024-03-08T05:19:08;1.70;99.90
63537;DHT22;49686;51.880;5.632;2024-03-08T05:21:35;1.70;99.90
63537;DHT22;49686;51.880;5.632;2024-03-08T05:24:02;1.70;99.90
63537;DHT22;49686;51.880;5.632;2024-03-08T05:26:28;1.70;99.90
63537;DHT22;49686;51.880;5.632;2024-03-08T05:28:57;1.70;99.90
63537;DHT22;49686;51.880;5.632;2024-03-08T05:31:25;1.70;99.90
63537;DHT22;49686;51.880;5.632;2024-03-08T05:33:52;1.60;99.90
63537;DHT22;49686;51.880;5.632;2024-03-08T05:36:19;1.60;99.90
63537;DHT22;49686;51.880;5.632;2024-03-08T05:38:46;1.60;99.90
63537;DHT22;49686;51.880;5.632;2024-03-08T05:41:16;1.60;99.90
63537;DHT22;49686;51.880;5.632;2024-03-08T05:43:44;1.60;99.90
63537;DHT22;49686;51.880;5.632;2024-03-08T05:46:15;1.60;99.90
63537;DHT22;49686;51.880;5.632;2024-03-08T05:48:43;1.60;99.90
63537;DHT22;49686;51.880;5.632;2024-03-08T05:51:10;1.60;99.90
63537;DHT22;49686;51.880;5.632;2024-03-08T05:53:37;1.60;99.90
63537;DHT22;49686;51.880;5.632;2024-03-08T05:56:05;1.50;99.90
63537;DHT22;49686;51.880;5.632;2024-03-08T05:58:32;1.50;99.90
63537;DHT22;49686;51.880;5.632;2024-03-08T06:00:59;1.50;99.90
63537;DHT22;49686;51.880;5.632;2024-03-08T06:03:25;1.50;99.90
63537;DHT22;49686;51.880;5.632;2024-03-08T06:05:55;1.50;99.90
63537;DHT22;49686;51.880;5.632;2024-03-08T06:08:25;1.50;99.90
63537;DHT22;49686;51.880;5.632;2024-03-08T06:10:51;1.50;99.90
63537;DHT22;49686;51.880;5.632;2024-03-08T06:13:18;1.50;99.90
63537;DHT22;49686;51.880;5.632;2024-03-08T06:15:48;1.60;99.90
63537;DHT22;49686;51.880;5.632;2024-03-08T06:18:15;1.50;99.90
63537;DHT22;49686;51.880;5.632;2024-03-08T06:20:42;1.50;99.90
63537;DHT22;49686;51.880;5.632;2024-03-08T06:23:10;1.60;99.90
63537;DHT22;49686;51.880;5.632;2024-03-08T06:25:37;1.60;99.90
63537;DHT22;49686;51.880;5.632;2024-03-08T06:28:06;1.60;99.90
63537;DHT22;49686;51.880;5.632;2024-03-08T06:30:33;1.60;99.90
63537;DHT22;49686;51.880;5.632;2024-03-08T06:33:00;1.60;99.90
63537;DHT22;49686;51.880;5.632;2024-03-08T06:35:27;1.70;99.90
63537;DHT22;49686;51.880;5.632;2024-03-08T06:37:54;1.70;99.90
63537;DHT22;49686;51.880;5.632;2024-03-08T06:40:25;1.70;99.90
63537;DHT22;49686;51.880;5.632;2024-03-08T06:42:52;1.80;99.90
63537;DHT22;49686;51.880;5.632;2024-03-08T06:45:19;1.80;99.90
63537;DHT22;49686;51.880;5.632;2024-03-08T06:47:48;1.80;99.90
63537;DHT22;49686;51.880;5.632;2024-03-08T06:50:16;1.80;99.90
63537;DHT22;49686;51.880;5.632;2024-03-08T06:52:43;1.80;99.90
63537;DHT22;49686;51.880;5.632;2024-03-08T06:55:09;1.80;99.90
63537;DHT22;49686;51.880;5.632;2024-03-08T06:57:38;1.90;99.90
63537;DHT22;49686;51.880;5.632;2024-03-08T07:00:06;1.90;99.90
63537;DHT22;49686;51.880;5.632;2024-03-08T07:02:36;2.00;99.90
63537;DHT22;49686;51.880;5.632;2024-03-08T07:05:03;2.00;99.90
63537;DHT22;49686;51.880;5.632;2024-03-08T07:07:30;2.10;99.90
63537;DHT22;49686;51.880;5.632;2024-03-08T07:09:57;2.10;99.90
63537;DHT22;49686;51.880;5.632;2024-03-08T07:12:26;2.20;99.90
63537;DHT22;49686;51.880;5.632;2024-03-08T07:14:55;2.20;99.90
63537;DHT22;49686;51.880;5.632;2024-03-08T07:17:24;2.20;99.90
63537;DHT22;49686;51.880;5.632;2024-03-08T07:19:54;2.30;99.90
63537;DHT22;49686;51.880;5.632;2024-03-08T07:22:21;2.40;99.90
63537;DHT22;49686;51.880;5.632;2024-03-08T07:24:51;2.40;99.90
63537;DHT22;49686;51.880;5.632;2024-03-08T07:27:18;2.50;99.90
63537;DHT22;49686;51.880;5.632;2024-03-08T07:29:45;2.50;99.90
63537;DHT22;49686;51.880;5.632;2024-03-08T07:32:13;2.60;99.90
63537;DHT22;49686;51.880;5.632;2024-03-08T07:34:40;2.60;99.90
63537;DHT22;49686;51.880;5.632;2024-03-08T07:37:07;2.60;99.90
63537;DHT22;49686;51.880;5.632;2024-03-08T07:39:34;2.70;99.90
63537;DHT22;49686;51.880;5.632;2024-03-08T07:42:01;2.70;99.90
63537;DHT22;49686;51.880;5.632;2024-03-08T07:44:28;2.80;99.90
63537;DHT22;49686;51.880;5.632;2024-03-08T07:46:55;2.80;99.90
63537;DHT22;49686;51.880;5.632;2024-03-08T07:49:27;2.80;99.90
63537;DHT22;49686;51.880;5.632;2024-03-08T07:51:54;2.90;99.90
63537;DHT22;49686;51.880;5.632;2024-03-08T07:54:23;3.00;99.90
63537;DHT22;49686;51.880;5.632;2024-03-08T07:56:49;3.10;99.90
63537;DHT22;49686;51.880;5.632;2024-03-08T07:59:16;3.30;99.90
63537;DHT22;49686;51.880;5.632;2024-03-08T08:01:43;3.40;99.90
63537;DHT22;49686;51.880;5.632;2024-03-08T08:04:10;3.60;99.90
63537;DHT22;49686;51.880;5.632;2024-03-08T08:06:39;3.70;99.90
63537;DHT22;49686;51.880;5.632;2024-03-08T08:09:05;3.90;99.90
63537;DHT22;49686;51.880;5.632;2024-03-08T08:11:32;4.10;99.90
63537;DHT22;49686;51.880;5.632;2024-03-08T08:14:02;4.10;99.90
63537;DHT22;49686;51.880;5.632;2024-03-08T08:16:29;4.20;99.90
63537;DHT22;49686;51.880;5.632;2024-03-08T08:18:56;4.20;99.90
63537;DHT22;49686;51.880;5.632;2024-03-08T08:21:23;4.20;99.90
63537;DHT22;49686;51.880;5.632;2024-03-08T08:23:52;4.20;99.90
63537;DHT22;49686;51.880;5.632;2024-03-08T08:26:20;4.30;99.90
63537;DHT22;49686;51.880;5.632;2024-03-08T08:28:47;4.40;99.90
63537;DHT22;49686;51.880;5.632;2024-03-08T08:31:19;4.50;99.90
63537;DHT22;49686;51.880;5.632;2024-03-08T08:33:50;4.50;99.90
63537;DHT22;49686;51.880;5.632;2024-03-08T08:36:19;4.60;99.90
63537;DHT22;49686;51.880;5.632;2024-03-08T08:38:49;4.70;99.90
63537;DHT22;49686;51.880;5.632;2024-03-08T08:41:17;4.70;99.90
63537;DHT22;49686;51.880;5.632;2024-03-08T08:43:44;4.90;99.90
63537;DHT22;49686;51.880;5.632;2024-03-08T08:46:24;5.10;99.90
63537;DHT22;49686;51.880;5.632;2024-03-08T08:48:52;5.20;99.90
63537;DHT22;49686;51.880;5.632;2024-03-08T08:51:19;5.30;99.90
63537;DHT22;49686;51.880;5.632;2024-03-08T08:53:47;5.40;99.90
63537;DHT22;49686;51.880;5.632;2024-03-08T08:56:17;5.40;99.90
63537;DHT22;49686;51.880;5.632;2024-03-08T08:58:46;5.70;99.90
63537;DHT22;49686;51.880;5.632;2024-03-08T09:01:13;5.80;99.90
63537;DHT22;49686;51.880;5.632;2024-03-08T09:03:40;5.70;99.90
63537;DHT22;49686;51.880;5.632;2024-03-08T09:06:07;5.70;99.90
63537;DHT22;49686;51.880;5.632;2024-03-08T09:08:34;5.90;99.90
63537;DHT22;49686;51.880;5.632;2024-03-08T09:11:02;5.90;99.90
63537;DHT22;49686;51.880;5.632;2024-03-08T09:13:30;6.00;99.90
63537;DHT22;49686;51.880;5.632;2024-03-08T09:16:00;6.00;99.90
63537;DHT22;49686;51.880;5.632;2024-03-08T09:18:29;6.10;99.90
63537;DHT22;49686;51.880;5.632;2024-03-08T09:20:57;6.20;99.90
63537;DHT22;49686;51.880;5.632;2024-03-08T09:23:23;6.30;99.90
63537;DHT22;49686;51.880;5.632;2024-03-08T09:25:50;6.50;99.90
63537;DHT22;49686;51.880;5.632;2024-03-08T09:28:20;6.70;99.90
63537;DHT22;49686;51.880;5.632;2024-03-08T09:30:51;6.90;99.90
63537;DHT22;49686;51.880;5.632;2024-03-08T09:33:26;6.90;99.90
63537;DHT22;49686;51.880;5.632;2024-03-08T09:35:53;6.90;99.90
63537;DHT22;49686;51.880;5.632;2024-03-08T09:38:25;6.90;99.90
63537;DHT22;49686;51.880;5.632;2024-03-08T09:40:52;7.00;99.90
63537;DHT22;49686;51.880;5.632;2024-03-08T09:43:19;6.90;99.90
63537;DHT22;49686;51.880;5.632;2024-03-08T09:45:52;6.80;99.90
63537;DHT22;49686;51.880;5.632;2024-03-08T09:48:24;7.10;99.90
63537;DHT22;49686;51.880;5.632;2024-03-08T09:50:52;7.40;99.90
63537;DHT22;49686;51.880;5.632;2024-03-08T09:53:19;7.50;99.90
63537;DHT22;49686;51.880;5.632;2024-03-08T09:55:48;7.60;99.90
63537;DHT22;49686;51.880;5.632;2024-03-08T09:58:16;7.50;99.90
63537;DHT22;49686;51.880;5.632;2024-03-08T10:00:45;7.40;99.90
63537;DHT22;49686;51.880;5.632;2024-03-08T10:03:23;7.70;99.90
63537;DHT22;49686;51.880;5.632;2024-03-08T10:05:50;7.80;99.90
63537;DHT22;49686;51.880;5.632;2024-03-08T10:08:22;7.80;99.90
63537;DHT22;49686;51.880;5.632;2024-03-08T10:10:51;7.60;99.90
63537;DHT22;49686;51.880;5.632;2024-03-08T10:13:18;7.70;99.90
63537;DHT22;49686;51.880;5.632;2024-03-08T10:15:45;7.80;99.90
63537;DHT22;49686;51.880;5.632;2024-03-08T10:18:15;7.90;99.90
63537;DHT22;49686;51.880;5.632;2024-03-08T10:20:42;7.90;99.90
63537;DHT22;49686;51.880;5.632;2024-03-08T10:23:09;7.90;99.90
63537;DHT22;49686;51.880;5.632;2024-03-08T10:25:38;8.10;99.90
63537;DHT22;49686;51.880;5.632;2024-03-08T10:28:05;8.20;99.90
63537;DHT22;49686;51.880;5.632;2024-03-08T10:30:32;8.20;99.90
63537;DHT22;49686;51.880;5.632;2024-03-08T10:32:59;8.40;99.90
63537;DHT22;49686;51.880;5.632;2024-03-08T10:35:30;8.60;99.90
63537;DHT22;49686;51.880;5.632;2024-03-08T10:37:57;8.80;99.90
63537;DHT22;49686;51.880;5.632;2024-03-08T10:40:25;8.90;99.90
63537;DHT22;49686;51.880;5.632;2024-03-08T10:42:54;9.10;99.90
63537;DHT22;49686;51.880;5.632;2024-03-08T10:45:30;9.00;99.90
63537;DHT22;49686;51.880;5.632;2024-03-08T10:48:09;9.10;99.90
63537;DHT22;49686;51.880;5.632;2024-03-08T10:53:27;9.00;99.90
63537;DHT22;49686;51.880;5.632;2024-03-08T10:55:56;9.10;99.90
63537;DHT22;49686;51.880;5.632;2024-03-08T10:58:24;9.10;99.90
63537;DHT22;49686;51.880;5.632;2024-03-08T11:00:52;9.20;99.90
63537;DHT22;49686;51.880;5.632;2024-03-08T11:03:45;9.30;99.90
63537;DHT22;49686;51.880;5.632;2024-03-08T11:06:16;9.40;99.90
63537;DHT22;49686;51.880;5.632;2024-03-08T11:08:43;9.60;99.90
63537;DHT22;49686;51.880;5.632;2024-03-08T11:11:27;9.40;99.90
63537;DHT22;49686;51.880;5.632;2024-03-08T11:14:00;9.40;99.90
63537;DHT22;49686;51.880;5.632;2024-03-08T11:16:38;9.40;99.90
63537;DHT22;49686;51.880;5.632;2024-03-08T11:19:24;9.70;99.90
63537;DHT22;49686;51.880;5.632;2024-03-08T11:22:00;9.90;99.90
63537;DHT22;49686;51.880;5.632;2024-03-08T11:24:28;10.00;99.90
63537;DHT22;49686;51.880;5.632;2024-03-08T11:27:03;10.10;99.90
63537;DHT22;49686;51.880;5.632;2024-03-08T11:29:35;10.10;99.90
63537;DHT22;49686;51.880;5.632;2024-03-08T11:32:08;10.10;99.90
63537;DHT22;49686;51.880;5.632;2024-03-08T11:34:41;10.10;99.90
63537;DHT22;49686;51.880;5.632;2024-03-08T11:37:13;10.10;99.90
63537;DHT22;49686;51.880;5.632;2024-03-08T11:39:40;10.40;99.90
63537;DHT22;49686;51.880;5.632;2024-03-08T11:42:15;10.60;99.90
63537;DHT22;49686;51.880;5.632;2024-03-08T11:44:42;10.60;99.90
63537;DHT22;49686;51.880;5.632;2024-03-08T11:47:09;10.60;99.90
63537;DHT22;49686;51.880;5.632;2024-03-08T11:49:39;10.50;99.90
63537;DHT22;49686;51.880;5.632;2024-03-08T11:52:06;10.60;99.90
63537;DHT22;49686;51.880;5.632;2024-03-08T11:54:38;10.50;99.90
63537;DHT22;49686;51.880;5.632;2024-03-08T11:57:05;10.30;99.90
63537;DHT22;49686;51.880;5.632;2024-03-08T11:59:32;10.20;99.90
63537;DHT22;49686;51.880;5.632;2024-03-08T12:02:00;10.20;99.90
63537;DHT22;49686;51.880;5.632;2024-03-08T12:04:28;10.30;99.90
63537;DHT22;49686;51.880;5.632;2024-03-08T12:06:55;10.40;99.90
63537;DHT22;49686;51.880;5.632;2024-03-08T12:09:22;10.50;99.90
63537;DHT22;49686;51.880;5.632;2024-03-08T12:11:50;10.50;99.90
63537;DHT22;49686;51.880;5.632;2024-03-08T12:14:17;10.50;99.90
63537;DHT22;49686;51.880;5.632;2024-03-08T12:16:44;10.50;99.90
63537;DHT22;49686;51.880;5.632;2024-03-08T12:19:11;10.50;99.90
63537;DHT22;49686;51.880;5.632;2024-03-08T12:21:38;10.60;99.90
63537;DHT22;49686;51.880;5.632;2024-03-08T12:24:07;10.60;99.90
63537;DHT22;49686;51.880;5.632;2024-03-08T12:26:36;10.50;99.90
63537;DHT22;49686;51.880;5.632;2024-03-08T12:29:21;10.50;99.90
63537;DHT22;49686;51.880;5.632;2024-03-08T12:31:52;10.50;99.40
63537;DHT22;49686;51.880;5.632;2024-03-08T12:34:21;10.60;99.70
63537;DHT22;49686;51.880;5.632;2024-03-08T12:36:50;10.60;99.70
63537;DHT22;49686;51.880;5.632;2024-03-08T12:39:17;10.60;99.80
63537;DHT22;49686;51.880;5.632;2024-03-08T12:41:44;10.60;99.80
63537;DHT22;49686;51.880;5.632;2024-03-08T12:44:11;10.60;99.10
63537;DHT22;49686;51.880;5.632;2024-03-08T12:46:44;10.70;99.90
63537;DHT22;49686;51.880;5.632;2024-03-08T12:49:11;10.70;99.10
63537;DHT22;49686;51.880;5.632;2024-03-08T12:51:38;10.70;98.90
63537;DHT22;49686;51.880;5.632;2024-03-08T12:54:05;10.70;98.80
63537;DHT22;49686;51.880;5.632;2024-03-08T12:56:37;10.50;98.50
63537;DHT22;49686;51.880;5.632;2024-03-08T12:59:04;10.50;99.10
63537;DHT22;49686;51.880;5.632;2024-03-08T13:01:32;10.60;98.70
63537;DHT22;49686;51.880;5.632;2024-03-08T13:04:00;10.80;99.30
63537;DHT22;49686;51.880;5.632;2024-03-08T13:06:29;10.90;98.60
63537;DHT22;49686;51.880;5.632;2024-03-08T13:08:56;11.00;99.30
63537;DHT22;49686;51.880;5.632;2024-03-08T13:11:24;11.20;99.60
63537;DHT22;49686;51.880;5.632;2024-03-08T13:13:51;11.30;98.60
63537;DHT22;49686;51.880;5.632;2024-03-08T13:16:19;10.90;98.10
63537;DHT22;49686;51.880;5.632;2024-03-08T13:18:46;10.80;98.50
63537;DHT22;49686;51.880;5.632;2024-03-08T13:21:18;10.80;97.90
63537;DHT22;49686;51.880;5.632;2024-03-08T13:23:45;10.70;98.50
63537;DHT22;49686;51.880;5.632;2024-03-08T13:26:15;10.80;98.30
63537;DHT22;49686;51.880;5.632;2024-03-08T13:28:44;10.80;98.30
63537;DHT22;49686;51.880;5.632;2024-03-08T13:31:11;10.90;98.40
63537;DHT22;49686;51.880;5.632;2024-03-08T13:33:38;11.00;98.80
63537;DHT22;49686;51.880;5.632;2024-03-08T13:36:06;11.00;98.00
63537;DHT22;49686;51.880;5.632;2024-03-08T13:38:36;11.00;98.20
63537;DHT22;49686;51.880;5.632;2024-03-08T13:41:03;11.10;98.10
63537;DHT22;49686;51.880;5.632;2024-03-08T13:43:30;11.10;98.10
63537;DHT22;49686;51.880;5.632;2024-03-08T13:45:57;10.90;98.00
63537;DHT22;49686;51.880;5.632;2024-03-08T13:48:24;10.90;98.40
63537;DHT22;49686;51.880;5.632;2024-03-08T13:50:51;10.90;97.80
63537;DHT22;49686;51.880;5.632;2024-03-08T13:53:18;10.90;98.00
63537;DHT22;49686;51.880;5.632;2024-03-08T13:55:46;10.80;98.20
63537;DHT22;49686;51.880;5.632;2024-03-08T13:58:13;10.80;98.40
63537;DHT22;49686;51.880;5.632;2024-03-08T14:00:41;11.00;98.60
63537;DHT22;49686;51.880;5.632;2024-03-08T14:03:09;10.90;98.00
63537;DHT22;49686;51.880;5.632;2024-03-08T14:05:38;11.00;98.50
63537;DHT22;49686;51.880;5.632;2024-03-08T14:08:05;11.20;98.70
63537;DHT22;49686;51.880;5.632;2024-03-08T14:10:32;11.30;98.70
63537;DHT22;49686;51.880;5.632;2024-03-08T14:13:01;11.10;98.10
63537;DHT22;49686;51.880;5.632;2024-03-08T14:15:28;11.00;98.40
63537;DHT22;49686;51.880;5.632;2024-03-08T14:17:56;11.00;98.80
63537;DHT22;49686;51.880;5.632;2024-03-08T14:20:23;11.10;98.70
63537;DHT22;49686;51.880;5.632;2024-03-08T14:22:53;11.10;98.40
63537;DHT22;49686;51.880;5.632;2024-03-08T14:25:21;11.00;98.20
63537;DHT22;49686;51.880;5.632;2024-03-08T14:27:48;11.10;98.80
63537;DHT22;49686;51.880;5.632;2024-03-08T14:30:16;11.10;98.90
63537;DHT22;49686;51.880;5.632;2024-03-08T14:32:43;11.00;98.50
63537;DHT22;49686;51.880;5.632;2024-03-08T14:35:10;11.10;98.80
63537;DHT22;49686;51.880;5.632;2024-03-08T14:37:37;11.00;98.40
63537;DHT22;49686;51.880;5.632;2024-03-08T14:40:05;10.90;97.90
63537;DHT22;49686;51.880;5.632;2024-03-08T14:42:32;10.80;97.90
63537;DHT22;49686;51.880;5.632;2024-03-08T14:44:59;10.90;98.10
63537;DHT22;49686;51.880;5.632;2024-03-08T14:47:27;10.90;97.90
63537;DHT22;49686;51.880;5.632;2024-03-08T14:49:54;10.90;98.60
63537;DHT22;49686;51.880;5.632;2024-03-08T14:52:21;11.00;98.10
63537;DHT22;49686;51.880;5.632;2024-03-08T14:54:48;11.00;98.00
63537;DHT22;49686;51.880;5.632;2024-03-08T14:57:15;10.90;97.90
63537;DHT22;49686;51.880;5.632;2024-03-08T14:59:42;10.90;98.00
63537;DHT22;49686;51.880;5.632;2024-03-08T15:02:09;10.90;98.20
63537;DHT22;49686;51.880;5.632;2024-03-08T15:04:37;11.00;98.80
63537;DHT22;49686;51.880;5.632;2024-03-08T15:07:04;11.00;98.40
63537;DHT22;49686;51.880;5.632;2024-03-08T15:09:31;11.00;98.40
63537;DHT22;49686;51.880;5.632;2024-03-08T15:11:58;10.90;98.20
63537;DHT22;49686;51.880;5.632;2024-03-08T15:14:25;11.00;98.40
63537;DHT22;49686;51.880;5.632;2024-03-08T15:16:52;10.80;98.20
63537;DHT22;49686;51.880;5.632;2024-03-08T15:19:19;10.80;98.30
63537;DHT22;49686;51.880;5.632;2024-03-08T15:21:48;10.70;98.30
63537;DHT22;49686;51.880;5.632;2024-03-08T15:24:15;10.70;98.70
63537;DHT22;49686;51.880;5.632;2024-03-08T15:26:42;10.80;99.30
63537;DHT22;49686;51.880;5.632;2024-03-08T15:29:09;10.80;99.00
63537;DHT22;49686;51.880;5.632;2024-03-08T15:31:39;10.80;99.20
63537;DHT22;49686;51.880;5.632;2024-03-08T15:34:05;10.70;98.70
63537;DHT22;49686;51.880;5.632;2024-03-08T15:36:32;10.70;99.10
63537;DHT22;49686;51.880;5.632;2024-03-08T15:39:01;10.60;99.10
63537;DHT22;49686;51.880;5.632;2024-03-08T15:41:28;10.60;99.20
63537;DHT22;49686;51.880;5.632;2024-03-08T15:43:56;10.60;99.40
63537;DHT22;49686;51.880;5.632;2024-03-08T15:46:23;10.70;99.50
63537;DHT22;49686;51.880;5.632;2024-03-08T15:48:50;10.50;99.10
63537;DHT22;49686;51.880;5.632;2024-03-08T15:51:19;10.40;98.80